Time;durP1;ratioP1;P1;durP2;ratioP2;P2;SDS_P1;SDS_P2;PMS_P1;PMS_P2;Temp;Humidity;BMP_temperature;BMP_pressure;BME280_temperature;BME280_humidity;BME280_pressure;Samples;Min_cycle;Max_cycle;Signal;HPM_P1;HPM_P2
2022/09/01 00:08:46;;;;;;;3.47;3.17;;;13.60;99.90;;;;;;20724683;28;20045;-53
2022/09/01 00:18:53;;;;;;;5.45;4.07;;;13.50;99.90;;;;;;20708139;28;20041;-57
2022/09/01 00:28:56;;;;;;;4.70;3.58;;;13.50;99.90;;;;;;20743557;28;20037;-52
2022/09/01 00:38:59;;;;;;;3.33;2.83;;;13.50;99.90;;;;;;20740535;28;20391;-52
2022/09/01 00:49:14;;;;;;;4.47;2.38;;;13.50;99.90;;;;;;20723965;28;20101;-53
2022/09/01 00:59:19;;;;;;;3.78;3.20;;;13.30;99.90;;;;;;20738507;28;20082;-55
2022/09/01 01:09:25;;;;;;;4.40;2.45;;;13.30;99.90;;;;;;20734404;28;20073;-53
2022/09/01 01:30:08;;;;;;;2.33;2.10;;;13.20;99.90;;;;;;20720302;28;20092;-56
2022/09/01 01:40:14;;;;;;;1.70;1.33;;;13.10;99.90;;;;;;20707968;28;20441;-57
2022/09/01 01:50:17;;;;;;;1.27;1.17;;;13.20;99.90;;;;;;20708982;28;20076;-56
2022/09/01 02:00:25;;;;;;;1.10;0.98;;;13.10;99.90;;;;;;20719002;28;20029;-50
2022/09/01 02:10:32;;;;;;;2.38;1.38;;;13.00;99.90;;;;;;20705214;28;20042;-56
2022/09/01 02:20:35;;;;;;;1.30;1.20;;;13.00;99.90;;;;;;20718409;28;20042;-53
2022/09/01 02:30:40;;;;;;;1.98;1.70;;;13.10;99.90;;;;;;20709375;28;20061;-53
2022/09/01 02:40:45;;;;;;;2.55;1.15;;;13.20;99.90;;;;;;20716563;28;20042;-53
2022/09/01 02:50:48;;;;;;;1.85;1.40;;;13.10;99.90;;;;;;20748264;28;20050;-52
2022/09/01 03:00:56;;;;;;;1.83;0.82;;;13.10;99.90;;;;;;20766414;28;20100;-54
2022/09/01 03:11:00;;;;;;;1.00;0.90;;;13.10;99.90;;;;;;20703116;28;20025;-53
2022/09/01 03:21:05;;;;;;;1.30;0.70;;;13.20;99.90;;;;;;20735419;28;20096;-58
2022/09/01 03:31:07;;;;;;;0.70;0.70;;;13.20;99.90;;;;;;20719713;28;20487;-58
2022/09/01 03:41:11;;;;;;;3.03;0.60;;;13.20;99.90;;;;;;20715954;28;20089;-52
2022/09/01 03:51:14;;;;;;;0.85;0.70;;;13.20;99.90;;;;;;20730598;28;20057;-52
2022/09/01 04:01:18;;;;;;;1.92;0.80;;;13.10;99.90;;;;;;20733652;28;20209;-58
2022/09/01 04:11:22;;;;;;;1.75;0.68;;;13.10;99.90;;;;;;20733803;28;20050;-52
2022/09/01 04:21:29;;;;;;;2.35;0.47;;;13.10;99.90;;;;;;20702757;28;20100;-58
2022/09/01 04:31:31;;;;;;;0.82;0.60;;;13.10;99.90;;;;;;20731874;28;20046;-54
2022/09/01 04:41:37;;;;;;;1.23;0.40;;;13.10;99.90;;;;;;20706834;28;20033;-59
2022/09/01 04:51:44;;;;;;;1.27;0.45;;;13.10;99.90;;;;;;20737741;28;20049;-54
2022/09/01 05:01:49;;;;;;;1.73;0.70;;;13.10;99.90;;;;;;20726149;28;20046;-58
2022/09/01 05:11:53;;;;;;;2.25;0.63;;;13.10;99.90;;;;;;20739387;28;20029;-54
2022/09/01 05:21:58;;;;;;;1.15;0.70;;;13.10;99.90;;;;;;20715620;28;20092;-53
2022/09/01 05:32:07;;;;;;;0.55;0.35;;;13.10;99.90;;;;;;20741128;28;20091;-58
2022/09/01 05:42:11;;;;;;;2.25;0.40;;;13.30;99.90;;;;;;20740663;28;20037;-51
2022/09/01 05:52:15;;;;;;;0.82;0.50;;;13.60;99.90;;;;;;20723253;28;20046;-54
2022/09/01 06:02:20;;;;;;;1.02;0.40;;;13.90;99.90;;;;;;20743006;28;20065;-54
2022/09/01 06:12:24;;;;;;;1.88;0.60;;;14.20;99.90;;;;;;20753162;28;20042;-54
2022/09/01 06:22:28;;;;;;;0.60;0.30;;;14.40;99.90;;;;;;20750819;28;20384;-53
2022/09/01 06:32:34;;;;;;;0.70;0.47;;;14.50;99.90;;;;;;20768060;28;20111;-58
2022/09/01 06:42:36;;;;;;;2.92;0.70;;;14.50;99.90;;;;;;20716625;28;20618;-50
2022/09/01 06:52:43;;;;;;;0.50;0.30;;;14.40;99.90;;;;;;20739534;28;20576;-53
2022/09/01 07:02:52;;;;;;;0.93;0.55;;;14.50;99.90;;;;;;20750414;28;20034;-57
2022/09/01 07:13:24;;;;;;;0.50;0.30;;;14.70;99.90;;;;;;20720516;28;20038;-58
2022/09/01 07:23:28;;;;;;;0.95;0.30;;;15.20;99.90;;;;;;20728898;28;20030;-53
2022/09/01 07:33:32;;;;;;;0.35;0.30;;;15.60;99.90;;;;;;20712125;28;20034;-58
2022/09/01 07:43:38;;;;;;;1.17;0.45;;;15.90;99.90;;;;;;20713908;28;20572;-58
2022/09/01 07:54:01;;;;;;;0.35;0.30;;;16.10;99.90;;;;;;20727000;28;20050;-53
2022/09/01 08:04:04;;;;;;;0.57;0.30;;;16.20;99.90;;;;;;20765089;28;20568;-54
2022/09/01 08:14:06;;;;;;;0.85;0.60;;;16.30;99.90;;;;;;20712143;28;20033;-53
2022/09/01 08:24:13;;;;;;;0.60;0.60;;;16.70;99.90;;;;;;20736358;28;20034;-59
2022/09/01 08:34:16;;;;;;;0.40;0.30;;;17.40;99.90;;;;;;20756419;28;20057;-54
2022/09/01 08:44:44;;;;;;;0.43;0.32;;;17.80;99.90;;;;;;20739754;28;20025;-58
2022/09/01 08:54:59;;;;;;;0.60;0.50;;;19.30;99.90;;;;;;20728759;28;20049;-58
2022/09/01 09:05:26;;;;;;;0.70;0.30;;;20.10;99.90;;;;;;20721070;28;20037;-58
2022/09/01 09:15:38;;;;;;;0.52;0.50;;;20.40;99.90;;;;;;20720982;28;20111;-56
2022/09/01 09:25:41;;;;;;;0.40;0.40;;;20.80;99.90;;;;;;20720838;28;20490;-55
2022/09/01 09:35:46;;;;;;;1.25;0.50;;;21.20;99.90;;;;;;20736373;28;20105;-55
2022/09/01 09:45:48;;;;;;;0.57;0.50;;;21.70;99.90;;;;;;20751884;28;20046;-56
2022/09/01 09:55:53;;;;;;;1.55;0.40;;;22.00;99.90;;;;;;20743950;28;20038;-59
2022/09/01 10:05:56;;;;;;;0.98;0.47;;;22.10;99.90;;;;;;20730455;28;20479;-56
2022/09/01 10:16:23;;;;;;;0.80;0.50;;;22.50;99.90;;;;;;20735247;28;20041;-55
2022/09/01 10:26:36;;;;;;;0.80;0.68;;;23.50;99.90;;;;;;20738948;28;20536;-54
2022/09/01 10:36:42;;;;;;;0.50;0.50;;;22.80;99.90;;;;;;20721750;28;20490;-55
2022/09/01 10:46:46;;;;;;;1.95;0.60;;;23.20;99.90;;;;;;20732560;28;20053;-56
2022/09/01 10:56:52;;;;;;;0.88;0.80;;;23.20;99.90;;;;;;20718347;28;20114;-55
2022/09/01 11:07:07;;;;;;;1.23;1.13;;;23.50;99.90;;;;;;20714130;28;20503;-60
2022/09/01 11:17:18;;;;;;;2.42;1.80;;;22.10;99.90;;;;;;20765620;28;20089;-59
2022/09/01 11:27:49;;;;;;;2.90;1.63;;;21.60;99.90;;;;;;20746211;28;20037;-59
2022/09/01 11:38:01;;;;;;;2.13;1.92;;;22.30;99.90;;;;;;20726901;28;20453;-60
2022/09/01 11:48:12;;;;;;;2.20;1.95;;;22.60;99.90;;;;;;20743266;28;20255;-55
2022/09/01 11:58:27;;;;;;;2.28;1.88;;;21.90;99.90;;;;;;20727381;28;20041;-60
2022/09/01 12:08:35;;;;;;;3.45;2.97;;;21.30;99.90;;;;;;20743017;28;20403;-55
2022/09/01 12:18:46;;;;;;;6.45;3.65;;;20.90;99.90;;;;;;20712958;28;20088;-55
2022/09/01 12:28:51;;;;;;;7.47;6.60;;;19.70;99.90;;;;;;20726341;28;20037;-60
2022/09/01 12:39:17;;;;;;;8.82;7.93;;;17.80;99.90;;;;;;20743752;28;20426;-52
2022/09/01 12:49:27;;;;;;;6.90;6.22;;;16.90;99.90;;;;;;20726008;28;20107;-54
2022/09/01 12:59:30;;;;;;;5.07;4.18;;;16.90;99.90;;;;;;20758862;28;20046;-55
2022/09/01 13:09:33;;;;;;;5.30;4.15;;;17.90;99.90;;;;;;20735031;28;20541;-54
2022/09/01 13:19:36;;;;;;;3.63;3.33;;;18.60;99.90;;;;;;20723007;28;20042;-58
2022/09/01 13:29:39;;;;;;;3.85;2.33;;;18.60;99.90;;;;;;20737911;28;20061;-56
2022/09/01 13:39:42;;;;;;;2.38;2.08;;;19.60;99.90;;;;;;20721465;28;20430;-55
2022/09/01 13:49:45;;;;;;;2.20;2.00;;;20.20;99.90;;;;;;20636761;28;20089;-54
2022/09/01 13:59:47;;;;;;;2.80;2.60;;;19.60;99.90;;;;;;20624388;28;20038;-55
2022/09/01 14:09:49;;;;;;;3.63;2.38;;;18.70;99.90;;;;;;20620867;28;20105;-53
2022/09/01 14:19:52;;;;;;;3.72;2.15;;;17.90;99.90;;;;;;20616133;28;20050;-54
2022/09/01 14:29:55;;;;;;;1.75;1.05;;;17.30;99.90;;;;;;20707187;28;20124;-55
2022/09/01 14:39:59;;;;;;;0.80;0.80;;;17.40;99.90;;;;;;20743130;28;20091;-55
2022/09/01 14:50:01;;;;;;;1.85;1.70;;;17.90;99.90;;;;;;20751655;28;20053;-53
2022/09/01 15:00:10;;;;;;;2.85;1.80;;;17.60;99.90;;;;;;20737588;28;20073;-53
2022/09/01 15:10:18;;;;;;;1.95;1.75;;;17.00;99.90;;;;;;20759679;28;20061;-54
2022/09/01 15:30:44;;;;;;;1.55;0.88;;;17.30;99.90;;;;;;20746413;28;20383;-61
2022/09/01 15:40:48;;;;;;;1.60;1.50;;;17.40;99.90;;;;;;20728162;28;20486;-54
2022/09/01 15:50:50;;;;;;;2.80;1.90;;;17.00;99.90;;;;;;20743467;28;20100;-53
2022/09/01 16:00:55;;;;;;;2.80;1.65;;;17.00;99.90;;;;;;20726938;28;20115;-55
2022/09/01 16:10:58;;;;;;;2.60;2.20;;;17.60;99.90;;;;;;20739282;28;20100;-59
2022/09/01 16:21:17;;;;;;;2.80;2.17;;;17.40;99.90;;;;;;20729919;28;20046;-59
2022/09/01 16:31:27;;;;;;;2.57;1.87;;;16.80;99.90;;;;;;20725160;28;20030;-53
2022/09/01 16:42:12;;;;;;;2.65;1.42;;;16.30;99.90;;;;;;20739925;28;20034;-60
2022/09/01 16:52:24;;;;;;;1.65;1.15;;;15.90;99.90;;;;;;20733885;28;20050;-54
2022/09/01 17:03:06;;;;;;;1.63;1.02;;;15.60;99.90;;;;;;20728975;28;20116;-59
2022/09/01 17:13:41;;;;;;;1.08;0.82;;;15.20;99.90;;;;;;20750108;28;20046;-58
2022/09/01 17:24:18;;;;;;;2.90;1.05;;;14.70;99.90;;;;;;20696966;28;20045;-58
2022/09/01 17:35:10;;;;;;;1.88;1.20;;;14.50;99.90;;;;;;20738084;28;20025;-52
2022/09/01 17:45:19;;;;;;;2.78;1.20;;;14.20;99.90;;;;;;20408739;28;20070;-53
2022/09/01 17:55:40;;;;;;;2.53;1.58;;;14.00;99.90;;;;;;20469760;28;20505;-52
2022/09/01 18:05:49;;;;;;;2.80;1.70;;;13.80;99.90;;;;;;20430947;28;20051;-54
2022/09/01 18:15:54;;;;;;;3.67;3.15;;;13.70;99.90;;;;;;20699237;28;20376;-59
2022/09/01 18:26:14;;;;;;;4.97;4.25;;;13.90;99.90;;;;;;20735844;28;20096;-58
2022/09/01 18:36:32;;;;;;;7.95;6.68;;;14.20;99.90;;;;;;20712749;28;20034;-52
2022/09/01 18:47:04;;;;;;;7.15;5.93;;;14.30;99.90;;;;;;20762423;28;20410;-53
2022/09/01 18:57:17;;;;;;;7.78;6.53;;;14.30;99.90;;;;;;20745718;28;20038;-52
2022/09/01 19:07:29;;;;;;;10.60;7.35;;;14.10;99.90;;;;;;20760525;28;20092;-51
2022/09/01 19:17:51;;;;;;;8.20;5.90;;;13.90;99.90;;;;;;20747993;28;20431;-52
2022/09/01 19:28:09;;;;;;;5.20;4.70;;;13.90;99.90;;;;;;20751470;28;20088;-59
2022/09/01 19:38:19;;;;;;;6.78;5.75;;;13.80;99.90;;;;;;20744757;28;20030;-53
2022/09/01 19:48:25;;;;;;;5.63;5.00;;;13.90;99.90;;;;;;20778739;28;20046;-58
2022/09/01 19:58:52;;;;;;;4.40;3.95;;;13.80;99.90;;;;;;20724098;28;20042;-58
2022/09/01 20:09:18;;;;;;;5.57;3.70;;;13.80;99.90;;;;;;20759207;28;20038;-54
2022/09/01 20:19:50;;;;;;;3.42;2.60;;;13.90;99.90;;;;;;20745228;28;20050;-54
2022/09/01 20:30:09;;;;;;;3.80;2.97;;;13.80;99.90;;;;;;20759717;28;20034;-53
2022/09/01 20:40:26;;;;;;;2.92;2.60;;;13.80;99.90;;;;;;20757141;28;20038;-54
2022/09/01 20:50:37;;;;;;;6.85;3.25;;;13.70;99.90;;;;;;20734451;28;20046;-52
2022/09/01 21:01:14;;;;;;;6.72;3.80;;;13.50;99.90;;;;;;20740684;28;20402;-53
2022/09/01 21:11:35;;;;;;;4.65;3.70;;;13.40;99.90;;;;;;20438625;28;20102;-54
2022/09/01 21:21:58;;;;;;;4.25;3.72;;;13.30;99.90;;;;;;20426674;28;20040;-52
2022/09/01 21:32:01;;;;;;;6.65;4.72;;;13.20;99.90;;;;;;20406114;29;20452;-58
2022/09/01 21:42:06;;;;;;;5.38;4.47;;;13.10;99.90;;;;;;20535117;28;20042;-53
2022/09/01 21:52:10;;;;;;;5.38;4.55;;;13.10;99.90;;;;;;20730446;28;20046;-58
2022/09/01 22:02:14;;;;;;;5.47;4.75;;;13.10;99.90;;;;;;20735411;28;20034;-58
2022/09/01 22:12:16;;;;;;;5.25;4.75;;;13.20;99.90;;;;;;20743059;28;20064;-59
2022/09/01 22:22:19;;;;;;;6.38;4.38;;;13.20;99.90;;;;;;20753491;28;20442;-58
2022/09/01 22:32:44;;;;;;;4.22;3.78;;;13.30;99.90;;;;;;20734135;28;20026;-58
2022/09/01 22:42:46;;;;;;;5.35;2.92;;;13.30;99.90;;;;;;20741673;28;20120;-53
2022/09/01 22:52:49;;;;;;;4.70;2.20;;;13.30;99.90;;;;;;20731668;28;20391;-53
2022/09/01 23:02:52;;;;;;;2.20;1.98;;;13.30;99.90;;;;;;20752246;28;20041;-59
2022/09/01 23:12:55;;;;;;;2.55;1.90;;;13.30;99.90;;;;;;20745932;28;20382;-53
2022/09/01 23:22:58;;;;;;;2.78;1.63;;;13.10;99.90;;;;;;20751904;28;20100;-54
2022/09/01 23:33:03;;;;;;;2.88;1.80;;;12.90;99.90;;;;;;20701460;28;20483;-58
2022/09/01 23:43:07;;;;;;;2.63;1.98;;;12.70;99.90;;;;;;20744165;28;20042;-51
2022/09/01 23:53:10;;;;;;;2.50;2.10;;;12.70;99.90;;;;;;20735268;28;20096;-54
